Nearby METAR (Airport) Reports

 

KPRN - Greenville, Alabama, USA
Distance from station: WNW 17mi, 28km
Updated: Mon, 23-Nov-2020 11:58am CST
Clear
Clear
 Wind from N
Wind: N 10 mph , 17 km/h, Gust: 16 mph , 26 km/h
Temperature: 64°F , 18°C
Dew Point: 37°F , 3°C
Humidity: 37%
Barometer: 30.22 inHg , 1023.4 hPa
Clouds: Clear
Visibility: 10 miles , 16 km
2020/11/23 17:58 KPRN 231758Z AUTO 01009G14KT 10SM CLR 18/03 A3022 RMK AO2 SLP180 T01780033 10178 20106 58020
KTOI - Troy, Alabama, USA
Distance from station: ENE 21mi, 34km
Updated: Mon, 23-Nov-2020 11:53am CST
Clear
Clear
 Wind from NNW
Wind: NNW 10 mph , 17 km/h
Temperature: 64°F , 18°C
Dew Point: 41°F , 5°C
Humidity: 43%
Barometer: 30.22 inHg , 1023.4 hPa
Clouds: Clear
Visibility: 10 miles , 16 km
2020/11/23 17:53 KTOI 231753Z AUTO 33009KT 10SM CLR 18/05 A3022 RMK AO2 SLP233 T01780050 10183 20128 58017
K79J - Andalusia/Opp Ar, Alabama, USA
Distance from station: S 29mi, 47km
Updated: Mon, 23-Nov-2020 11:56am CST
Clear
Clear
 Wind from NNW
Wind: NNW 10 mph , 17 km/h, Gust: 18 mph , 30 km/h
Temperature: 68°F , 20°C
Dew Point: 45°F , 7°C
Humidity: 43%
Barometer: 30.21 inHg , 1023 hPa
Clouds: Clear
Visibility: 10 miles , 16 km
2020/11/23 17:56 K79J 231756Z AUTO 33009G16KT 10SM CLR 20/07 A3021 RMK AO2 SLP227 T02000072 10200 20139 58018
 
KMGM - Montgomery, Alabama, USA
Distance from station: N 39mi, 63km
Updated: Mon, 23-Nov-2020 11:53am CST
Clear
Clear
 Wind from NNE
Wind: NNE 8 mph , 13 km/h
Temperature: 63°F , 17°C
Dew Point: 36°F , 2°C
Humidity: 37%
Barometer: 30.25 inHg , 1024.4 hPa
Clouds: Clear
Visibility: 10 miles , 16 km
2020/11/23 17:53 KMGM 231753Z 02007KT 10SM CLR 17/02 A3025 RMK AO2 SLP241 T01670022 10172 20106 58018
KMXF - Maxwell Afb/Mgm, Alabama, USA
Distance from station: N 44mi, 70km
Updated: Mon, 23-Nov-2020 11:56am CST
Clear
Clear
 Wind from NW
Wind: NW 8 mph , 13 km/h
Temperature: 63°F , 17°C
Dew Point: 41°F , 5°C
Humidity: 45%
Barometer: 30.24 inHg , 1024 hPa
Clouds: Clear
Visibility: 10 miles , 16 km
2020/11/23 17:56 KMXF 231756Z 32007KT 10SM CLR 17/05 A3024 RMK AO2A SLP243 T01650134 10165 20106 58020 $
KLOR - Lowe Ahp/Ft. Ruc, Alabama, USA
Distance from station: SE 44mi, 71km
Updated: Mon, 23-Nov-2020 12:21pm CST
Clear
Clear
 Wind from NNW
Wind: NNW 9 mph , 15 km/h
Temperature: 66°F , 19°C
Dew Point: 46°F , 8°C
Humidity: 49%
Barometer: 30.17 inHg , 1021.7 hPa
Clouds: Clear
Visibility: 10 miles , 16 km
2020/11/23 18:21 KLOR 231821Z AUTO 34008KT 10SM CLR 19/08 A3017 RMK AO2 SLP199
 
KGZH - Evergreen, Alabama, USA
Distance from station: WSW 46mi, 75km
Updated: Mon, 23-Nov-2020 11:53am CST
Clear
Clear
 Wind from N
Wind: N 10 mph , 17 km/h
Temperature: 64°F , 18°C
Dew Point: 43°F , 6°C
Humidity: 46%
Barometer: 30.23 inHg , 1023.7 hPa
Clouds: Clear
Visibility: 10 miles , 16 km
2020/11/23 17:53 KGZH 231753Z AUTO 35009KT 10SM CLR 18/06 A3023 RMK AO2 SLP236 T01780061 10178 20117 58020
K0J4 - Florala Muni, Alabama, USA
Distance from station: S 47mi, 76km
Updated: Mon, 23-Nov-2020 11:58am CST
Clear
Clear
 Wind from N
Wind: N 9 mph , 15 km/h
Temperature: 64°F , 18°C
Dew Point: 46°F , 8°C
Humidity: 52%
Barometer: 30.22 inHg , 1023.4 hPa
Clouds: Clear
Visibility: 10 miles , 16 km
2020/11/23 17:58 K0J4 231758Z AUTO 35008KT 10SM CLR 18/08 A3022 RMK AO2 SLP230 T01830083 10183 20133 58018
KOZR - Ozark/Cairns Aaf, Alabama, USA
Distance from station: SE 49mi, 78km
Updated: Mon, 23-Nov-2020 12:17pm CST
Clear
Clear
 Wind from NNE
Wind: NNE 9 mph , 15 km/h
Temperature: 66°F , 19°C
Dew Point: 45°F , 7°C
Humidity: 46%
Barometer: 30.17 inHg , 1021.7 hPa
Clouds: Clear
Visibility: 10 miles , 16 km
2020/11/23 18:17 KOZR 231817Z AUTO 02008KT 10SM CLR 19/07 A3017 RMK AO2 SLP218
 
KHEY - Ft Rucker/Hanche, Alabama, USA
Distance from station: ESE 49mi, 79km
Updated: Mon, 23-Nov-2020 12:20pm CST
Clear
Clear
 Wind from N
Wind: N 8 mph , 13 km/h
Temperature: 64°F , 18°C
Dew Point: 45°F , 7°C
Humidity: 49%
Barometer: 30.16 inHg , 1021.3 hPa
Clouds: Clear
Visibility: 10 miles , 16 km
2020/11/23 18:20 KHEY 231820Z AUTO 36007KT 10SM CLR 18/07 A3016 RMK AO2 SLP215
KDHN - Dothan, Alabama, USA
Distance from station: ESE 61mi, 97km
Updated: Mon, 23-Nov-2020 11:53am CST
Clear
Clear
 Wind from N
Wind: N 10 mph , 17 km/h
Temperature: 68°F , 20°C
Dew Point: 46°F , 8°C
Humidity: 46%
Barometer: 30.21 inHg , 1023 hPa
Clouds: Clear
Visibility: 10 miles , 16 km
2020/11/23 17:53 KDHN 231753Z 36009KT 10SM CLR 20/08 A3021 RMK AO2 SLP227 T02000083 10200 20122 58017
KCEW - Crestview, Florida, USA
Distance from station: S 66mi, 107km
Updated: Mon, 23-Nov-2020 11:53am CST
Clear
Clear
 Wind from varies
Wind: varies 5 mph , 7 km/h
Temperature: 64°F , 18°C
Dew Point: 50°F , 10°C
Humidity: 60%
Barometer: 30.21 inHg , 1023 hPa
Clouds: Clear
Visibility: 10 miles , 16 km
2020/11/23 17:53 KCEW 231753Z AUTO VRB04KT 10SM CLR 18/10 A3021 RMK AO2 SLP229 T01830100 10189 20139 58015
 
KEUF - Eufaula, Alabama, USA
Distance from station: ENE 73mi, 118km
Updated: Mon, 23-Nov-2020 11:58am CST
Clear
Clear
 Wind from varies
Wind: varies 5 mph , 7 km/h
Temperature: 64°F , 18°C
Dew Point: 39°F , 4°C
Humidity: 40%
Barometer: 30.19 inHg , 1022.4 hPa
Clouds: Clear
Visibility: 10 miles , 16 km
2020/11/23 17:58 KEUF 231758Z AUTO VRB04KT 10SM CLR 18/04 A3019 RMK AO2 SLP221 T01830039 10183 20128 58021
KJKA - Gulf Shores, Alabama, USA
Distance from station: SSW 132mi, 212km
Updated: Tue, 15-Sep-2020 10:35pm CDT
NOT Current
Heavy rain
Heavy rain
 
Temperature: 73°F , 23°C
Dew Point: 73°F , 23°C
Humidity: 100%
Barometer: 29.46 inHg , 997.6 hPa
Summary: Heavy rain
Visibility: 1 3/4 miles , 2.8 km
2020/09/16 03:35 KJKA 160335Z AUTO 1 3/4SM +RA 23/23 A2946 RMK AO2 P0033 T02340230
KLSF - Ft Benning/Colum, Georgia, USA
Distance from station: SNE 89mi, 143km
Updated: Mon, 23-Nov-2020 11:56am CST
Clear
Clear
 Wind from NW
Wind: NW 9 mph , 15 km/h
Temperature: 64°F , 18°C
Dew Point: 37°F , 3°C
Humidity: 37%
Barometer: 30.19 inHg , 1022.4 hPa
Clouds: Clear
Visibility: 10 miles , 16 km
2020/11/23 17:56 KLSF 231756Z AUTO 31008KT 10SM CLR 18/03 A3019 RMK AO2 SLP228 T01780029 10179 20096 58018 $
 
KMOB - Mobile/Bates, Alabama, USA
Distance from station: SW 125mi, 202km
Updated: Mon, 23-Nov-2020 12:22pm CST
Few Clouds
Few Clouds
 Wind from NNW
Wind: NNW 7 mph , 11 km/h
Temperature: 63°F , 17°C
Dew Point: 45°F , 7°C
Humidity: 52%
Barometer: 30.22 inHg , 1023.4 hPa
Clouds: Few Clouds
Visibility: 10 miles , 16 km
Cloud details: Few Clouds 500 ft
Few Clouds 25000 ft
2020/11/23 18:22 KMOB 231822Z 34006KT 10SM FEW005 FEW250 17/07 A3022 RMK AO2 FU FEW005 T01720067 $
KNMM - Meridian Nas, Mississippi, USA
Distance from station: WNW 151mi, 243km
Updated: Mon, 23-Nov-2020 11:56am CST
Clear
Clear
 Wind from varies
Wind: varies 7 mph , 11 km/h
Temperature: 57°F , 14°C
Dew Point: 36°F , 2°C
Humidity: 44%
Barometer: 30.30 inHg , 1026.1 hPa
Clouds: Clear
Visibility: 10 miles , 16 km
2020/11/23 17:56 KNMM 231756Z VRB06KT 10SM CLR 14/02 A3030 RMK AO2 SLP271 T01440022 10144 20061 58019
KQHY - Hurlbert (Ft Walton Bch), Florida, USA
Distance from station: S 94mi, 151km
Updated: Mon, 23-Nov-2020 11:56am CST
Clear
Clear
 Wind from NNE
Wind: NNE 8 mph , 13 km/h
Temperature: 64°F , 18°C
Dew Point: 54°F , 12°C
Humidity: 68%
Barometer: 30.18 inHg , 1022 hPa
Clouds: Clear
Visibility: 10 miles , 16 km
2020/11/23 17:56 KQHY 231756Z AUTO 03007KT 10SM CLR 18/12 A3018 RMK AO2 SLPNO T01830116 10183 20140 58014
 
KTCL - Tuscaloosa, Alabama, USA
Distance from station: NNW 129mi, 207km
Updated: Mon, 23-Nov-2020 11:53am CST
Clear
Clear
 Wind from NNE
Wind: NNE 6 mph , 9 km/h
Temperature: 59°F , 15°C
Dew Point: 36°F , 2°C
Humidity: 42%
Barometer: 30.30 inHg , 1026.1 hPa
Clouds: Clear
Visibility: 10 miles , 16 km
2020/11/23 17:53 KTCL 231753Z 02005KT 10SM CLR 15/02 A3030 RMK AO2 SLP261 60000 T01500022 10150 20061 58019
KECP - Panama City, Florida, USA
Distance from station: SSE 122mi, 196km
Updated: Mon, 23-Nov-2020 11:53am CST
Clear
Clear
 Wind from N
Wind: N 9 mph , 15 km/h
Temperature: 66°F , 19°C
Dew Point: 55°F , 13°C
Humidity: 68%
Barometer: 30.17 inHg , 1021.7 hPa
Clouds: Clear
Visibility: 10 miles , 16 km
2020/11/23 17:53 KECP 231753Z 35008KT 10SM CLR 19/13 A3017 RMK AO2 SLP226 T01890128 10189 20139 56014
KCBM - Columbus Afb, Mississippi, USA
Distance from station: NW 175mi, 282km
Updated: Mon, 23-Nov-2020 11:56am CST
Clear
Clear
 Wind from N
Wind: N 5 mph , 7 km/h
Temperature: 55°F , 13°C
Dew Point: 37°F , 3°C
Humidity: 51%
Barometer: 30.32 inHg , 1026.8 hPa
Clouds: Clear
Visibility: 10 miles , 16 km
2020/11/23 17:56 KCBM 231756Z AUTO 36004KT 10SM CLR 13/03 A3032 RMK AO2 SLP271 T01270028 10127 20035 58020 $
 
KBHM - Birmingham, Alabama, USA
Distance from station: N 132mi, 212km
Updated: Mon, 23-Nov-2020 11:53am CST
Clear
Clear
 Wind from N
Wind: N 10 mph , 17 km/h
Temperature: 55°F , 13°C
Dew Point: 34°F , 1°C
Humidity: 44%
Barometer: 30.31 inHg , 1026.4 hPa
Clouds: Clear
Visibility: 10 miles , 16 km
2020/11/23 17:53 KBHM 231753Z 36009KT 10SM CLR 13/01 A3031 RMK AO2 SLP261 T01330011 10133 20056 58015
KAAF - Apalachicola, Florida, USA
Distance from station: SSE 156mi, 250km
Updated: Mon, 23-Nov-2020 11:53am CST
Clear
Clear
 Wind from NNE
Wind: NNE 10 mph , 17 km/h
Temperature: 75°F , 24°C
Dew Point: 55°F , 13°C
Humidity: 50%
Barometer: 30.15 inHg , 1021 hPa
Clouds: Clear
Visibility: 10 miles , 16 km
2020/11/23 17:53 KAAF 231753Z AUTO 02009KT 10SM CLR 24/13 A3015 RMK AO2 SLP209 T02440128 10244 20156 58006
KATL - Atlanta, Georgia, USA
Distance from station: NE 177mi, 287km
Updated: Mon, 23-Nov-2020 11:52am CST
Clear
Clear
 Wind from NW
Wind: NW 12 mph , 19 km/h
Temperature: 59°F , 15°C
Dew Point: 34°F , 1°C
Humidity: 39%
Barometer: 30.20 inHg , 1022.7 hPa
Clouds: Clear
Visibility: 10 miles , 16 km
2020/11/23 17:52 KATL 231752Z 32010KT 10SM CLR 15/01 A3020 RMK AO2 SLP226 T01500011 10150 20072 58014
 
KGPT - Gulfport, Mississippi, USA
Distance from station: SW 192mi, 309km
Updated: Mon, 23-Nov-2020 11:53am CST
Clear
Clear
 Wind from N
Wind: N 7 mph , 11 km/h
Temperature: 64°F , 18°C
Dew Point: 48°F , 9°C
Humidity: 56%
Barometer: 30.23 inHg , 1023.7 hPa
Clouds: Clear
Visibility: 10 miles , 16 km
2020/11/23 17:53 KGPT 231753Z 01006KT 10SM CLR 18/09 A3023 RMK AO2 SLP235 T01830089 10183 20144 58012
KNEW - New Orleans/Lake, Louisiana, USA
Distance from station: SW 255mi, 410km
Updated: Mon, 23-Nov-2020 11:53am CST
Few Clouds
Few Clouds
 Wind from N
Wind: N 10 mph , 17 km/h
Temperature: 64°F , 18°C
Dew Point: 54°F , 12°C
Humidity: 68%
Barometer: 30.25 inHg , 1024.4 hPa
Clouds: Few Clouds
Visibility: 10 miles , 16 km
Cloud details: Few Clouds 1200 ft
2020/11/23 17:53 KNEW 231753Z 36009KT 10SM FEW012 18/12 A3025 RMK AO2 SLP238 T01830117 10183 20150 58010
KP92 - Salt Point, Louisiana, USA
Distance from station: SW 347mi, 559km
Updated: Mon, 23-Nov-2020 11:59am CST

 Wind from varies
Wind: varies 5 mph , 7 km/h
Temperature: 66°F , 19°C
Dew Point: 55°F , 13°C
Humidity: 68%
Barometer: 30.22 inHg , 1023.4 hPa
2020/11/23 17:59 KP92 231759Z AUTO VRB04KT 19/13 A3022 RMK AO1 SLP232 T01940133 10194 20133 58013